Etimesgut Air Base

LTAD · 安卡拉省, 土耳其

罗盘
风向 的 Etimesgut Air Base 11L/29R
风: 0 kt, 0 beaufort


改变
0 ft 1.000 2.000 3.000 4.000 5.000
CAVOK
METAR LTAD 231650Z 00000KT CAVOK 06/M04 Q1022 NOSIG RMK RWY29 VRB02KT

METAR Etimesgut Air Base - LTAD/ANK

Etimesgut Air Base是,土耳其中的中型机场。 该机场位于纬度39,95007和经度32,68792。 该机场有2条跑道: 11L/29R 和 11R/29L. 本场的ICAO机场代码为LTAD。 该机场的IATA代码为ANK。 机场在Ankara FIR中。

该航空气象观测是针对Etimesgut Air Base在2024年2月23日 19:50, 当地时间进行的。

机场观察

可变方向的风很小或没有风。

天气为CAVOK。这意味着在5.000 ft或MSA(最低安全高度)以下(以较高者为准)以下没有云。这也意味着没有观测到积雨云或高耸的积云,可见度为10 km 或者更多或更高。此外,不会有雾,降雨或其他重要天气。

温度和风寒是6 °C。 露点为-4 °C,相对湿度为49%。 海平面上的气压为1022 hPa (QNH)。

白天

今天,太阳从07:31升起,在18:33降落。 这适用于Etimesgut Air Base,世界夏令时可能有所不同。 当地时间与世界标准时间之间的时差为+3 小时。 当前,没有夏令时有效。

公司介绍

在这个机场,你可以找到飞行学校。 本场上唯一已知的公司是THK UA。

体会

到Vliegles.nl去找飞行课程,跳伞和其他飞行体验。 浏览页面,了解Etimesgut Air Base附近所有可用的活动。 你也可以使用搜索功能来寻找你所在地附近的特定飞行课程、跳伞或其他飞行体验。

跑道

Id 标题 侧风 逆风 侧风 %
11L/29R 114°-294°
11R/29L 114°-294°

逆风成分最大的方向会被突出显示,并用于横风计算。 这并不一定意味着这个方向在使用。

温度 & 天气

温度 6 °C
露点 -4 °C
相对湿度 49%
Kp-index 0 (0-9)

评论

VRB02KT未知降水 开始于 02, 结束于
RWY29

白天

日出
07:31 (11:00)
中午
13:02
日落
18:33

小工具

你想在你的网站上有一个关于Etimesgut Air Base的当前航空天气(METAR)的小部件吗?

显示HTML代码
?>